sensor_id;sensor_type;location;lat;lon;timestamp;P1;durP1;ratioP1;P2;durP2;ratioP2
11537;SDS011;50159;49.426;11.182;2022-10-22T00:00:08;3.40;;;3.20;;
11537;SDS011;50159;49.426;11.182;2022-10-22T00:02:39;3.93;;;3.20;;
11537;SDS011;50159;49.426;11.182;2022-10-22T00:05:06;3.40;;;3.20;;
11537;SDS011;50159;49.426;11.182;2022-10-22T00:07:34;3.67;;;3.10;;
11537;SDS011;50159;49.426;11.182;2022-10-22T00:10:01;3.10;;;3.00;;
11537;SDS011;50159;49.426;11.182;2022-10-22T00:12:30;3.17;;;2.97;;
11537;SDS011;50159;49.426;11.182;2022-10-22T00:14:57;2.67;;;2.57;;
11537;SDS011;50159;49.426;11.182;2022-10-22T00:17:24;3.27;;;3.03;;
11537;SDS011;50159;49.426;11.182;2022-10-22T00:19:51;2.87;;;2.70;;
11537;SDS011;50159;49.426;11.182;2022-10-22T00:22:18;2.80;;;2.70;;
11537;SDS011;50159;49.426;11.182;2022-10-22T00:24:44;2.80;;;2.60;;
11537;SDS011;50159;49.426;11.182;2022-10-22T00:27:11;2.70;;;2.60;;
11537;SDS011;50159;49.426;11.182;2022-10-22T00:29:39;2.73;;;2.63;;
11537;SDS011;50159;49.426;11.182;2022-10-22T00:32:05;2.80;;;2.70;;
11537;SDS011;50159;49.426;11.182;2022-10-22T00:34:33;2.90;;;2.60;;
11537;SDS011;50159;49.426;11.182;2022-10-22T00:36:59;2.50;;;2.40;;
11537;SDS011;50159;49.426;11.182;2022-10-22T00:39:27;2.97;;;2.70;;
11537;SDS011;50159;49.426;11.182;2022-10-22T00:41:54;2.60;;;2.50;;
11537;SDS011;50159;49.426;11.182;2022-10-22T00:48:00;2.73;;;2.53;;
11537;SDS011;50159;49.426;11.182;2022-10-22T00:53:21;2.80;;;2.70;;
11537;SDS011;50159;49.426;11.182;2022-10-22T00:55:57;2.70;;;2.40;;
11537;SDS011;50159;49.426;11.182;2022-10-22T00:58:26;2.73;;;2.53;;
11537;SDS011;50159;49.426;11.182;2022-10-22T01:00:56;2.63;;;2.50;;
11537;SDS011;50159;49.426;11.182;2022-10-22T01:03:24;2.40;;;2.30;;
11537;SDS011;50159;49.426;11.182;2022-10-22T01:05:57;3.20;;;3.00;;
11537;SDS011;50159;49.426;11.182;2022-10-22T01:08:29;2.80;;;2.60;;
11537;SDS011;50159;49.426;11.182;2022-10-22T01:11:26;3.20;;;2.90;;
11537;SDS011;50159;49.426;11.182;2022-10-22T01:14:15;2.73;;;2.60;;
11537;SDS011;50159;49.426;11.182;2022-10-22T01:22:45;2.57;;;2.40;;
11537;SDS011;50159;49.426;11.182;2022-10-22T01:31:17;3.50;;;3.20;;
11537;SDS011;50159;49.426;11.182;2022-10-22T01:33:47;2.80;;;2.70;;
11537;SDS011;50159;49.426;11.182;2022-10-22T01:36:18;3.17;;;2.97;;
11537;SDS011;50159;49.426;11.182;2022-10-22T01:38:49;3.00;;;2.83;;
11537;SDS011;50159;49.426;11.182;2022-10-22T01:41:17;2.80;;;2.60;;
11537;SDS011;50159;49.426;11.182;2022-10-22T01:43:44;3.07;;;2.80;;
11537;SDS011;50159;49.426;11.182;2022-10-22T01:46:11;3.10;;;2.90;;
11537;SDS011;50159;49.426;11.182;2022-10-22T01:48:50;2.57;;;2.47;;
11537;SDS011;50159;49.426;11.182;2022-10-22T01:51:26;3.03;;;2.70;;
11537;SDS011;50159;49.426;11.182;2022-10-22T01:56:53;2.87;;;2.63;;
11537;SDS011;50159;49.426;11.182;2022-10-22T02:02:35;2.70;;;2.57;;
11537;SDS011;50159;49.426;11.182;2022-10-22T02:05:21;2.50;;;2.40;;
11537;SDS011;50159;49.426;11.182;2022-10-22T02:08:22;2.67;;;2.50;;
11537;SDS011;50159;49.426;11.182;2022-10-22T02:10:54;2.77;;;2.57;;
11537;SDS011;50159;49.426;11.182;2022-10-22T02:13:24;2.60;;;2.50;;
11537;SDS011;50159;49.426;11.182;2022-10-22T02:16:06;2.67;;;2.53;;
11537;SDS011;50159;49.426;11.182;2022-10-22T02:18:36;2.73;;;2.53;;
11537;SDS011;50159;49.426;11.182;2022-10-22T02:21:09;2.60;;;2.50;;
11537;SDS011;50159;49.426;11.182;2022-10-22T02:23:36;2.60;;;2.50;;
11537;SDS011;50159;49.426;11.182;2022-10-22T02:26:06;2.80;;;2.70;;
11537;SDS011;50159;49.426;11.182;2022-10-22T02:28:57;2.97;;;2.77;;
11537;SDS011;50159;49.426;11.182;2022-10-22T02:31:32;2.70;;;2.50;;
11537;SDS011;50159;49.426;11.182;2022-10-22T02:34:07;2.67;;;2.57;;
11537;SDS011;50159;49.426;11.182;2022-10-22T02:36:40;2.73;;;2.50;;
11537;SDS011;50159;49.426;11.182;2022-10-22T02:39:14;2.73;;;2.53;;
11537;SDS011;50159;49.426;11.182;2022-10-22T02:41:43;2.40;;;2.30;;
11537;SDS011;50159;49.426;11.182;2022-10-22T02:44:10;3.10;;;2.90;;
11537;SDS011;50159;49.426;11.182;2022-10-22T02:46:37;2.83;;;2.63;;
11537;SDS011;50159;49.426;11.182;2022-10-22T02:49:05;2.30;;;2.20;;
11537;SDS011;50159;49.426;11.182;2022-10-22T02:51:32;2.67;;;2.57;;
11537;SDS011;50159;49.426;11.182;2022-10-22T02:53:59;2.50;;;2.40;;
11537;SDS011;50159;49.426;11.182;2022-10-22T02:56:26;2.47;;;2.37;;
11537;SDS011;50159;49.426;11.182;2022-10-22T02:58:52;2.23;;;2.17;;
11537;SDS011;50159;49.426;11.182;2022-10-22T03:01:19;2.33;;;2.23;;
11537;SDS011;50159;49.426;11.182;2022-10-22T03:03:46;2.77;;;2.57;;
11537;SDS011;50159;49.426;11.182;2022-10-22T03:06:13;2.80;;;2.60;;
11537;SDS011;50159;49.426;11.182;2022-10-22T03:08:40;5.13;;;2.30;;
11537;SDS011;50159;49.426;11.182;2022-10-22T03:11:07;2.67;;;2.47;;
11537;SDS011;50159;49.426;11.182;2022-10-22T03:13:34;2.63;;;2.53;;
11537;SDS011;50159;49.426;11.182;2022-10-22T03:16:01;2.13;;;2.10;;
11537;SDS011;50159;49.426;11.182;2022-10-22T03:18:28;2.33;;;2.23;;
11537;SDS011;50159;49.426;11.182;2022-10-22T03:20:59;2.20;;;2.10;;
11537;SDS011;50159;49.426;11.182;2022-10-22T03:24:02;2.53;;;2.43;;
11537;SDS011;50159;49.426;11.182;2022-10-22T03:26:35;2.30;;;2.20;;
11537;SDS011;50159;49.426;11.182;2022-10-22T03:29:06;3.10;;;2.80;;
11537;SDS011;50159;49.426;11.182;2022-10-22T03:31:35;2.57;;;2.47;;
11537;SDS011;50159;49.426;11.182;2022-10-22T03:34:02;2.50;;;2.40;;
11537;SDS011;50159;49.426;11.182;2022-10-22T03:36:29;2.23;;;2.13;;
11537;SDS011;50159;49.426;11.182;2022-10-22T03:38:58;2.40;;;2.30;;
11537;SDS011;50159;49.426;11.182;2022-10-22T03:41:27;3.40;;;3.20;;
11537;SDS011;50159;49.426;11.182;2022-10-22T03:43:54;2.40;;;2.30;;
11537;SDS011;50159;49.426;11.182;2022-10-22T03:46:22;2.50;;;2.40;;
11537;SDS011;50159;49.426;11.182;2022-10-22T03:48:49;2.40;;;2.30;;
11537;SDS011;50159;49.426;11.182;2022-10-22T03:51:16;2.57;;;2.43;;
11537;SDS011;50159;49.426;11.182;2022-10-22T03:53:42;2.40;;;2.30;;
11537;SDS011;50159;49.426;11.182;2022-10-22T03:56:10;2.13;;;2.03;;
11537;SDS011;50159;49.426;11.182;2022-10-22T03:58:39;2.80;;;2.70;;
11537;SDS011;50159;49.426;11.182;2022-10-22T04:01:07;2.33;;;2.30;;
11537;SDS011;50159;49.426;11.182;2022-10-22T04:03:38;3.20;;;2.47;;
11537;SDS011;50159;49.426;11.182;2022-10-22T04:06:07;2.43;;;2.33;;
11537;SDS011;50159;49.426;11.182;2022-10-22T04:08:38;3.17;;;2.60;;
11537;SDS011;50159;49.426;11.182;2022-10-22T04:11:07;2.63;;;2.53;;
11537;SDS011;50159;49.426;11.182;2022-10-22T04:13:35;2.40;;;2.30;;
11537;SDS011;50159;49.426;11.182;2022-10-22T04:16:21;2.50;;;2.40;;
11537;SDS011;50159;49.426;11.182;2022-10-22T04:18:53;2.70;;;2.60;;
11537;SDS011;50159;49.426;11.182;2022-10-22T04:21:20;2.87;;;2.77;;
11537;SDS011;50159;49.426;11.182;2022-10-22T04:23:49;2.70;;;2.50;;
11537;SDS011;50159;49.426;11.182;2022-10-22T04:26:18;2.37;;;2.27;;
11537;SDS011;50159;49.426;11.182;2022-10-22T04:28:46;2.27;;;2.23;;
11537;SDS011;50159;49.426;11.182;2022-10-22T04:31:16;2.80;;;2.70;;
11537;SDS011;50159;49.426;11.182;2022-10-22T04:33:46;2.60;;;2.50;;
11537;SDS011;50159;49.426;11.182;2022-10-22T04:36:17;2.80;;;2.70;;
11537;SDS011;50159;49.426;11.182;2022-10-22T04:38:45;3.20;;;2.70;;
11537;SDS011;50159;49.426;11.182;2022-10-22T04:41:18;3.00;;;2.80;;
11537;SDS011;50159;49.426;11.182;2022-10-22T04:43:48;2.73;;;2.63;;
11537;SDS011;50159;49.426;11.182;2022-10-22T04:46:16;3.37;;;3.07;;
11537;SDS011;50159;49.426;11.182;2022-10-22T04:48:44;3.30;;;3.10;;
11537;SDS011;50159;49.426;11.182;2022-10-22T04:51:15;3.17;;;2.97;;
11537;SDS011;50159;49.426;11.182;2022-10-22T04:53:45;3.20;;;3.00;;
11537;SDS011;50159;49.426;11.182;2022-10-22T04:56:13;3.03;;;2.80;;
11537;SDS011;50159;49.426;11.182;2022-10-22T04:58:51;4.33;;;3.20;;
11537;SDS011;50159;49.426;11.182;2022-10-22T05:01:25;3.03;;;2.93;;
11537;SDS011;50159;49.426;11.182;2022-10-22T05:03:56;2.93;;;2.67;;
11537;SDS011;50159;49.426;11.182;2022-10-22T05:06:26;3.23;;;2.90;;
11537;SDS011;50159;49.426;11.182;2022-10-22T05:08:56;3.50;;;3.30;;
11537;SDS011;50159;49.426;11.182;2022-10-22T05:11:27;4.70;;;3.30;;
11537;SDS011;50159;49.426;11.182;2022-10-22T05:13:59;3.60;;;3.40;;
11537;SDS011;50159;49.426;11.182;2022-10-22T05:16:28;2.70;;;2.60;;
11537;SDS011;50159;49.426;11.182;2022-10-22T05:18:56;3.57;;;3.27;;
11537;SDS011;50159;49.426;11.182;2022-10-22T05:21:25;3.00;;;2.70;;
11537;SDS011;50159;49.426;11.182;2022-10-22T05:23:53;3.10;;;3.00;;
11537;SDS011;50159;49.426;11.182;2022-10-22T05:26:21;2.87;;;2.67;;
11537;SDS011;50159;49.426;11.182;2022-10-22T05:28:49;2.57;;;2.47;;
11537;SDS011;50159;49.426;11.182;2022-10-22T05:31:16;2.47;;;2.43;;
11537;SDS011;50159;49.426;11.182;2022-10-22T05:33:44;3.00;;;2.80;;
11537;SDS011;50159;49.426;11.182;2022-10-22T05:36:12;2.50;;;2.40;;
11537;SDS011;50159;49.426;11.182;2022-10-22T05:38:44;3.07;;;2.87;;
11537;SDS011;50159;49.426;11.182;2022-10-22T05:41:18;2.73;;;2.60;;
11537;SDS011;50159;49.426;11.182;2022-10-22T05:43:48;2.63;;;2.47;;
11537;SDS011;50159;49.426;11.182;2022-10-22T05:46:17;2.60;;;2.50;;
11537;SDS011;50159;49.426;11.182;2022-10-22T05:49:00;2.60;;;2.50;;
11537;SDS011;50159;49.426;11.182;2022-10-22T05:51:31;2.73;;;2.63;;
11537;SDS011;50159;49.426;11.182;2022-10-22T05:54:02;2.53;;;2.30;;
11537;SDS011;50159;49.426;11.182;2022-10-22T05:56:32;2.60;;;2.50;;
11537;SDS011;50159;49.426;11.182;2022-10-22T05:59:00;2.63;;;2.53;;
11537;SDS011;50159;49.426;11.182;2022-10-22T06:01:29;2.80;;;2.60;;
11537;SDS011;50159;49.426;11.182;2022-10-22T06:03:58;3.03;;;2.20;;
11537;SDS011;50159;49.426;11.182;2022-10-22T06:06:28;2.27;;;2.17;;
11537;SDS011;50159;49.426;11.182;2022-10-22T06:12:06;3.23;;;2.50;;
11537;SDS011;50159;49.426;11.182;2022-10-22T06:14:35;4.10;;;2.30;;
11537;SDS011;50159;49.426;11.182;2022-10-22T06:17:02;2.67;;;2.57;;
11537;SDS011;50159;49.426;11.182;2022-10-22T06:19:29;2.50;;;2.37;;
11537;SDS011;50159;49.426;11.182;2022-10-22T06:21:56;2.70;;;2.57;;
11537;SDS011;50159;49.426;11.182;2022-10-22T06:24:23;2.40;;;2.30;;
11537;SDS011;50159;49.426;11.182;2022-10-22T06:26:50;2.40;;;2.20;;
11537;SDS011;50159;49.426;11.182;2022-10-22T06:29:17;2.30;;;2.20;;
11537;SDS011;50159;49.426;11.182;2022-10-22T06:31:44;2.20;;;2.20;;
11537;SDS011;50159;49.426;11.182;2022-10-22T06:34:11;2.20;;;2.20;;
11537;SDS011;50159;49.426;11.182;2022-10-22T06:36:39;2.20;;;2.10;;
11537;SDS011;50159;49.426;11.182;2022-10-22T06:39:10;2.30;;;2.20;;
11537;SDS011;50159;49.426;11.182;2022-10-22T06:41:38;2.30;;;2.20;;
11537;SDS011;50159;49.426;11.182;2022-10-22T06:44:05;2.20;;;2.10;;
11537;SDS011;50159;49.426;11.182;2022-10-22T06:46:37;2.70;;;2.60;;
11537;SDS011;50159;49.426;11.182;2022-10-22T06:49:10;2.90;;;2.70;;
11537;SDS011;50159;49.426;11.182;2022-10-22T06:51:39;2.80;;;2.70;;
11537;SDS011;50159;49.426;11.182;2022-10-22T06:54:06;3.10;;;2.80;;
11537;SDS011;50159;49.426;11.182;2022-10-22T06:56:34;3.60;;;3.10;;
11537;SDS011;50159;49.426;11.182;2022-10-22T06:59:00;2.80;;;2.60;;
11537;SDS011;50159;49.426;11.182;2022-10-22T07:01:29;3.10;;;2.90;;
11537;SDS011;50159;49.426;11.182;2022-10-22T07:04:00;2.67;;;2.53;;
11537;SDS011;50159;49.426;11.182;2022-10-22T07:06:28;3.47;;;3.17;;
11537;SDS011;50159;49.426;11.182;2022-10-22T07:08:56;3.70;;;3.40;;
11537;SDS011;50159;49.426;11.182;2022-10-22T07:11:25;3.40;;;3.10;;
11537;SDS011;50159;49.426;11.182;2022-10-22T07:14:04;3.80;;;3.50;;
11537;SDS011;50159;49.426;11.182;2022-10-22T07:16:30;4.33;;;3.73;;
11537;SDS011;50159;49.426;11.182;2022-10-22T07:18:58;4.20;;;3.90;;
11537;SDS011;50159;49.426;11.182;2022-10-22T07:21:27;3.60;;;3.40;;
11537;SDS011;50159;49.426;11.182;2022-10-22T07:23:55;3.63;;;3.43;;
11537;SDS011;50159;49.426;11.182;2022-10-22T07:26:23;3.83;;;3.57;;
11537;SDS011;50159;49.426;11.182;2022-10-22T07:28:50;3.50;;;3.30;;
11537;SDS011;50159;49.426;11.182;2022-10-22T07:31:17;3.40;;;3.23;;
11537;SDS011;50159;49.426;11.182;2022-10-22T07:33:45;3.63;;;3.43;;
11537;SDS011;50159;49.426;11.182;2022-10-22T07:36:12;4.13;;;3.93;;
11537;SDS011;50159;49.426;11.182;2022-10-22T07:38:46;4.60;;;4.23;;
11537;SDS011;50159;49.426;11.182;2022-10-22T07:41:18;3.87;;;3.57;;
11537;SDS011;50159;49.426;11.182;2022-10-22T07:43:45;3.63;;;3.43;;
11537;SDS011;50159;49.426;11.182;2022-10-22T07:46:12;3.50;;;3.30;;
11537;SDS011;50159;49.426;11.182;2022-10-22T07:48:39;3.13;;;3.03;;
11537;SDS011;50159;49.426;11.182;2022-10-22T07:51:06;3.23;;;3.13;;
11537;SDS011;50159;49.426;11.182;2022-10-22T07:53:33;3.70;;;3.13;;
11537;SDS011;50159;49.426;11.182;2022-10-22T07:56:00;3.20;;;3.00;;
11537;SDS011;50159;49.426;11.182;2022-10-22T07:58:27;2.90;;;2.67;;
11537;SDS011;50159;49.426;11.182;2022-10-22T08:00:54;2.57;;;2.47;;
11537;SDS011;50159;49.426;11.182;2022-10-22T08:03:25;2.87;;;2.67;;
11537;SDS011;50159;49.426;11.182;2022-10-22T08:05:54;3.03;;;1.97;;
11537;SDS011;50159;49.426;11.182;2022-10-22T08:08:21;2.97;;;2.77;;
11537;SDS011;50159;49.426;11.182;2022-10-22T08:10:55;3.63;;;2.77;;
11537;SDS011;50159;49.426;11.182;2022-10-22T08:13:24;2.40;;;2.30;;
11537;SDS011;50159;49.426;11.182;2022-10-22T08:15:52;2.17;;;2.07;;
11537;SDS011;50159;49.426;11.182;2022-10-22T08:18:23;2.57;;;2.37;;
11537;SDS011;50159;49.426;11.182;2022-10-22T08:20:50;2.57;;;2.10;;
11537;SDS011;50159;49.426;11.182;2022-10-22T08:23:18;2.20;;;2.00;;
11537;SDS011;50159;49.426;11.182;2022-10-22T08:25:53;2.40;;;2.30;;
11537;SDS011;50159;49.426;11.182;2022-10-22T08:28:22;2.10;;;2.00;;
11537;SDS011;50159;49.426;11.182;2022-10-22T08:30:50;2.20;;;2.10;;
11537;SDS011;50159;49.426;11.182;2022-10-22T08:33:16;2.73;;;2.50;;
11537;SDS011;50159;49.426;11.182;2022-10-22T08:35:50;2.20;;;2.10;;
11537;SDS011;50159;49.426;11.182;2022-10-22T08:38:18;2.00;;;1.80;;
11537;SDS011;50159;49.426;11.182;2022-10-22T08:40:46;1.40;;;1.40;;
11537;SDS011;50159;49.426;11.182;2022-10-22T08:43:40;1.67;;;1.57;;
11537;SDS011;50159;49.426;11.182;2022-10-22T08:49:04;1.20;;;1.20;;
11537;SDS011;50159;49.426;11.182;2022-10-22T08:51:56;1.93;;;1.90;;
11537;SDS011;50159;49.426;11.182;2022-10-22T08:54:58;1.40;;;1.37;;
11537;SDS011;50159;49.426;11.182;2022-10-22T09:03:05;5.90;;;5.43;;
11537;SDS011;50159;49.426;11.182;2022-10-22T09:06:10;5.87;;;4.47;;
11537;SDS011;50159;49.426;11.182;2022-10-22T09:08:51;4.03;;;3.73;;
11537;SDS011;50159;49.426;11.182;2022-10-22T09:13:56;5.53;;;2.43;;
11537;SDS011;50159;49.426;11.182;2022-10-22T09:19:24;2.23;;;2.13;;
11537;SDS011;50159;49.426;11.182;2022-10-22T09:25:27;1.70;;;1.60;;
11537;SDS011;50159;49.426;11.182;2022-10-22T09:27:57;1.20;;;1.20;;
11537;SDS011;50159;49.426;11.182;2022-10-22T09:30:26;1.80;;;1.70;;
11537;SDS011;50159;49.426;11.182;2022-10-22T09:33:01;1.47;;;1.37;;
11537;SDS011;50159;49.426;11.182;2022-10-22T09:35:33;1.70;;;1.43;;
11537;SDS011;50159;49.426;11.182;2022-10-22T09:38:10;1.23;;;1.23;;
11537;SDS011;50159;49.426;11.182;2022-10-22T09:40:47;1.90;;;1.80;;
11537;SDS011;50159;49.426;11.182;2022-10-22T09:43:17;3.37;;;1.63;;
11537;SDS011;50159;49.426;11.182;2022-10-22T09:45:44;1.90;;;1.57;;
11537;SDS011;50159;49.426;11.182;2022-10-22T09:50:47;1.43;;;1.40;;
11537;SDS011;50159;49.426;11.182;2022-10-22T09:53:34;1.10;;;1.10;;
11537;SDS011;50159;49.426;11.182;2022-10-22T09:56:08;1.10;;;1.10;;
11537;SDS011;50159;49.426;11.182;2022-10-22T09:58:46;2.27;;;1.30;;
11537;SDS011;50159;49.426;11.182;2022-10-22T10:01:21;1.10;;;1.10;;
11537;SDS011;50159;49.426;11.182;2022-10-22T10:04:03;1.10;;;1.10;;
11537;SDS011;50159;49.426;11.182;2022-10-22T10:06:36;1.10;;;1.10;;
11537;SDS011;50159;49.426;11.182;2022-10-22T10:09:18;1.20;;;1.20;;
11537;SDS011;50159;49.426;11.182;2022-10-22T10:14:47;1.40;;;1.20;;
11537;SDS011;50159;49.426;11.182;2022-10-22T10:35:30;0.80;;;0.80;;
11537;SDS011;50159;49.426;11.182;2022-10-22T10:38:25;0.90;;;0.90;;
11537;SDS011;50159;49.426;11.182;2022-10-22T11:00:49;0.93;;;0.90;;
11537;SDS011;50159;49.426;11.182;2022-10-22T11:06:08;0.93;;;0.93;;
11537;SDS011;50159;49.426;11.182;2022-10-22T11:08:42;1.00;;;0.90;;
11537;SDS011;50159;49.426;11.182;2022-10-22T11:11:21;0.80;;;0.80;;
11537;SDS011;50159;49.426;11.182;2022-10-22T11:14:09;1.50;;;0.90;;
11537;SDS011;50159;49.426;11.182;2022-10-22T11:22:43;0.83;;;0.83;;
11537;SDS011;50159;49.426;11.182;2022-10-22T11:25:41;0.77;;;0.73;;
11537;SDS011;50159;49.426;11.182;2022-10-22T11:30:56;1.00;;;0.90;;
11537;SDS011;50159;49.426;11.182;2022-10-22T11:33:36;1.00;;;1.00;;
11537;SDS011;50159;49.426;11.182;2022-10-22T11:36:30;2.50;;;1.00;;
11537;SDS011;50159;49.426;11.182;2022-10-22T11:38:58;0.87;;;0.87;;
11537;SDS011;50159;49.426;11.182;2022-10-22T11:41:29;2.43;;;1.00;;
11537;SDS011;50159;49.426;11.182;2022-10-22T11:46:57;0.97;;;0.97;;
11537;SDS011;50159;49.426;11.182;2022-10-22T11:49:44;0.83;;;0.80;;
11537;SDS011;50159;49.426;11.182;2022-10-22T11:52:53;1.10;;;1.03;;
11537;SDS011;50159;49.426;11.182;2022-10-22T11:55:45;0.80;;;0.80;;
11537;SDS011;50159;49.426;11.182;2022-10-22T11:58:59;1.03;;;1.03;;
11537;SDS011;50159;49.426;11.182;2022-10-22T12:03:38;1.00;;;1.00;;
11537;SDS011;50159;49.426;11.182;2022-10-22T12:08:45;2.30;;;1.17;;
11537;SDS011;50159;49.426;11.182;2022-10-22T12:13:57;2.27;;;0.90;;
11537;SDS011;50159;49.426;11.182;2022-10-22T12:19:43;0.80;;;0.80;;
11537;SDS011;50159;49.426;11.182;2022-10-22T12:25:00;0.90;;;0.90;;
11537;SDS011;50159;49.426;11.182;2022-10-22T12:27:36;0.93;;;0.93;;
11537;SDS011;50159;49.426;11.182;2022-10-22T12:30:19;0.90;;;0.90;;
11537;SDS011;50159;49.426;11.182;2022-10-22T12:32:51;1.20;;;1.10;;
11537;SDS011;50159;49.426;11.182;2022-10-22T12:35:23;1.03;;;0.90;;
11537;SDS011;50159;49.426;11.182;2022-10-22T12:37:54;1.20;;;0.90;;
11537;SDS011;50159;49.426;11.182;2022-10-22T12:40:24;0.97;;;0.97;;
11537;SDS011;50159;49.426;11.182;2022-10-22T12:42:57;0.87;;;0.87;;
11537;SDS011;50159;49.426;11.182;2022-10-22T12:45:31;2.00;;;1.13;;
11537;SDS011;50159;49.426;11.182;2022-10-22T12:48:01;1.73;;;1.10;;
11537;SDS011;50159;49.426;11.182;2022-10-22T12:50:51;0.80;;;0.80;;
11537;SDS011;50159;49.426;11.182;2022-10-22T12:56:03;6.20;;;1.13;;
11537;SDS011;50159;49.426;11.182;2022-10-22T12:58:39;1.17;;;1.03;;
11537;SDS011;50159;49.426;11.182;2022-10-22T13:01:11;4.03;;;1.10;;
11537;SDS011;50159;49.426;11.182;2022-10-22T13:03:45;1.33;;;1.00;;
11537;SDS011;50159;49.426;11.182;2022-10-22T13:09:02;1.57;;;1.03;;
11537;SDS011;50159;49.426;11.182;2022-10-22T13:11:33;0.73;;;0.73;;
11537;SDS011;50159;49.426;11.182;2022-10-22T13:14:35;0.93;;;0.93;;
11537;SDS011;50159;49.426;11.182;2022-10-22T13:19:58;0.90;;;0.90;;
11537;SDS011;50159;49.426;11.182;2022-10-22T13:22:32;1.57;;;0.83;;
11537;SDS011;50159;49.426;11.182;2022-10-22T13:27:48;1.00;;;0.90;;
11537;SDS011;50159;49.426;11.182;2022-10-22T13:33:01;2.13;;;0.70;;
11537;SDS011;50159;49.426;11.182;2022-10-22T13:35:33;2.20;;;0.80;;
11537;SDS011;50159;49.426;11.182;2022-10-22T13:38:05;1.00;;;1.00;;
11537;SDS011;50159;49.426;11.182;2022-10-22T13:40:43;0.70;;;0.70;;
11537;SDS011;50159;49.426;11.182;2022-10-22T13:43:10;2.13;;;0.80;;
11537;SDS011;50159;49.426;11.182;2022-10-22T13:45:37;0.97;;;0.90;;
11537;SDS011;50159;49.426;11.182;2022-10-22T13:48:04;0.70;;;0.70;;
11537;SDS011;50159;49.426;11.182;2022-10-22T13:50:34;1.07;;;1.07;;
11537;SDS011;50159;49.426;11.182;2022-10-22T13:53:01;0.83;;;0.83;;
11537;SDS011;50159;49.426;11.182;2022-10-22T13:55:28;3.13;;;0.97;;
11537;SDS011;50159;49.426;11.182;2022-10-22T13:57:59;0.60;;;0.60;;
11537;SDS011;50159;49.426;11.182;2022-10-22T14:00:39;1.83;;;0.67;;
11537;SDS011;50159;49.426;11.182;2022-10-22T14:03:10;0.50;;;0.50;;
11537;SDS011;50159;49.426;11.182;2022-10-22T14:05:41;5.07;;;0.80;;
11537;SDS011;50159;49.426;11.182;2022-10-22T14:08:10;0.93;;;0.63;;
11537;SDS011;50159;49.426;11.182;2022-10-22T14:10:41;0.57;;;0.50;;
11537;SDS011;50159;49.426;11.182;2022-10-22T14:13:11;0.73;;;0.37;;
11537;SDS011;50159;49.426;11.182;2022-10-22T14:15:43;1.50;;;0.70;;
11537;SDS011;50159;49.426;11.182;2022-10-22T14:18:15;0.73;;;0.60;;
11537;SDS011;50159;49.426;11.182;2022-10-22T14:20:54;0.73;;;0.50;;
11537;SDS011;50159;49.426;11.182;2022-10-22T14:23:24;1.50;;;0.47;;
11537;SDS011;50159;49.426;11.182;2022-10-22T14:25:54;2.03;;;0.70;;
11537;SDS011;50159;49.426;11.182;2022-10-22T14:28:23;0.50;;;0.50;;
11537;SDS011;50159;49.426;11.182;2022-10-22T14:30:50;1.23;;;0.57;;
11537;SDS011;50159;49.426;11.182;2022-10-22T14:33:18;0.83;;;0.70;;
11537;SDS011;50159;49.426;11.182;2022-10-22T14:35:58;1.07;;;0.40;;
11537;SDS011;50159;49.426;11.182;2022-10-22T14:38:26;2.43;;;0.70;;
11537;SDS011;50159;49.426;11.182;2022-10-22T14:40:53;0.83;;;0.50;;
11537;SDS011;50159;49.426;11.182;2022-10-22T14:43:22;0.70;;;0.70;;
11537;SDS011;50159;49.426;11.182;2022-10-22T14:45:52;0.50;;;0.50;;
11537;SDS011;50159;49.426;11.182;2022-10-22T14:48:19;0.63;;;0.63;;
11537;SDS011;50159;49.426;11.182;2022-10-22T14:50:47;0.50;;;0.50;;
11537;SDS011;50159;49.426;11.182;2022-10-22T14:53:14;1.40;;;0.90;;
11537;SDS011;50159;49.426;11.182;2022-10-22T14:55:42;0.90;;;0.90;;
11537;SDS011;50159;49.426;11.182;2022-10-22T14:58:12;0.70;;;0.70;;
11537;SDS011;50159;49.426;11.182;2022-10-22T15:00:39;1.03;;;0.77;;
11537;SDS011;50159;49.426;11.182;2022-10-22T15:03:08;1.63;;;0.80;;
11537;SDS011;50159;49.426;11.182;2022-10-22T15:05:38;0.90;;;0.90;;
11537;SDS011;50159;49.426;11.182;2022-10-22T15:08:09;1.33;;;1.00;;
11537;SDS011;50159;49.426;11.182;2022-10-22T15:10:37;1.07;;;0.90;;
11537;SDS011;50159;49.426;11.182;2022-10-22T15:13:05;0.97;;;0.97;;
11537;SDS011;50159;49.426;11.182;2022-10-22T15:15:32;0.80;;;0.80;;
11537;SDS011;50159;49.426;11.182;2022-10-22T15:18:04;0.90;;;0.90;;
11537;SDS011;50159;49.426;11.182;2022-10-22T15:20:31;1.23;;;0.90;;
11537;SDS011;50159;49.426;11.182;2022-10-22T15:22:57;1.67;;;1.00;;
11537;SDS011;50159;49.426;11.182;2022-10-22T15:25:25;1.00;;;1.00;;
11537;SDS011;50159;49.426;11.182;2022-10-22T15:27:52;1.00;;;1.00;;
11537;SDS011;50159;49.426;11.182;2022-10-22T15:30:27;0.80;;;0.80;;
11537;SDS011;50159;49.426;11.182;2022-10-22T15:32:53;0.70;;;0.70;;
11537;SDS011;50159;49.426;11.182;2022-10-22T15:35:20;0.93;;;0.80;;
11537;SDS011;50159;49.426;11.182;2022-10-22T15:37:49;1.03;;;1.03;;
11537;SDS011;50159;49.426;11.182;2022-10-22T15:40:16;1.83;;;1.37;;
11537;SDS011;50159;49.426;11.182;2022-10-22T15:42:43;0.73;;;0.73;;
11537;SDS011;50159;49.426;11.182;2022-10-22T15:45:11;1.00;;;1.00;;
11537;SDS011;50159;49.426;11.182;2022-10-22T15:47:38;0.90;;;0.90;;
11537;SDS011;50159;49.426;11.182;2022-10-22T15:50:05;0.90;;;0.90;;
11537;SDS011;50159;49.426;11.182;2022-10-22T15:52:33;1.10;;;1.10;;
11537;SDS011;50159;49.426;11.182;2022-10-22T15:55:00;1.00;;;1.00;;
11537;SDS011;50159;49.426;11.182;2022-10-22T15:57:29;1.20;;;1.10;;
11537;SDS011;50159;49.426;11.182;2022-10-22T15:59:56;1.00;;;1.00;;
11537;SDS011;50159;49.426;11.182;2022-10-22T16:02:22;2.33;;;1.00;;
11537;SDS011;50159;49.426;11.182;2022-10-22T16:04:49;0.93;;;0.93;;
11537;SDS011;50159;49.426;11.182;2022-10-22T16:07:16;8.10;;;1.63;;
11537;SDS011;50159;49.426;11.182;2022-10-22T16:09:49;1.03;;;0.93;;
11537;SDS011;50159;49.426;11.182;2022-10-22T16:12:16;2.73;;;1.20;;
11537;SDS011;50159;49.426;11.182;2022-10-22T16:14:42;3.13;;;1.20;;
11537;SDS011;50159;49.426;11.182;2022-10-22T16:17:09;2.30;;;1.30;;
11537;SDS011;50159;49.426;11.182;2022-10-22T16:19:36;7.63;;;1.43;;
11537;SDS011;50159;49.426;11.182;2022-10-22T16:22:03;2.40;;;1.27;;
11537;SDS011;50159;49.426;11.182;2022-10-22T16:24:30;2.80;;;1.00;;
11537;SDS011;50159;49.426;11.182;2022-10-22T16:26:56;3.07;;;1.17;;
11537;SDS011;50159;49.426;11.182;2022-10-22T16:29:23;1.97;;;1.13;;
11537;SDS011;50159;49.426;11.182;2022-10-22T16:31:50;2.73;;;1.37;;
11537;SDS011;50159;49.426;11.182;2022-10-22T16:34:17;3.37;;;1.30;;
11537;SDS011;50159;49.426;11.182;2022-10-22T16:36:43;1.63;;;1.30;;
11537;SDS011;50159;49.426;11.182;2022-10-22T16:39:10;1.30;;;1.20;;
11537;SDS011;50159;49.426;11.182;2022-10-22T16:41:37;5.37;;;2.00;;
11537;SDS011;50159;49.426;11.182;2022-10-22T16:44:05;4.03;;;2.30;;
11537;SDS011;50159;49.426;11.182;2022-10-22T16:46:33;6.50;;;2.33;;
11537;SDS011;50159;49.426;11.182;2022-10-22T16:49:05;2.63;;;2.30;;
11537;SDS011;50159;49.426;11.182;2022-10-22T16:51:32;4.87;;;2.47;;
11537;SDS011;50159;49.426;11.182;2022-10-22T16:54:00;4.17;;;1.80;;
11537;SDS011;50159;49.426;11.182;2022-10-22T16:56:30;3.77;;;1.93;;
11537;SDS011;50159;49.426;11.182;2022-10-22T16:58:58;5.37;;;2.10;;
11537;SDS011;50159;49.426;11.182;2022-10-22T17:01:25;2.97;;;1.80;;
11537;SDS011;50159;49.426;11.182;2022-10-22T17:03:55;2.30;;;2.10;;
11537;SDS011;50159;49.426;11.182;2022-10-22T17:06:24;2.23;;;1.93;;